Time;durP1;ratioP1;P1;durP2;ratioP2;P2;SDS_P1;SDS_P2;PMS_P1;PMS_P2;Temp;Humidity;BMP_temperature;BMP_pressure;BME280_temperature;BME280_humidity;BME280_pressure;Samples;Min_cycle;Max_cycle;Signal;HPM_P1;HPM_P2
2022/06/11 00:00:23;;;;;;;7.97;4.38;;;17.20;99.90;;;;;;4989945;28;20038;-86
2022/06/11 00:02:49;;;;;;;20.50;4.97;;;17.10;99.90;;;;;;4972693;28;20469;-88
2022/06/11 00:05:15;;;;;;;6.22;4.68;;;17.10;99.90;;;;;;4989745;28;20023;-86
2022/06/11 00:07:41;;;;;;;8.70;5.22;;;17.10;99.90;;;;;;4989933;28;20030;-88
2022/06/11 00:10:08;;;;;;;5.60;4.80;;;17.10;99.90;;;;;;4989940;28;20035;-86
2022/06/11 00:12:34;;;;;;;8.70;5.07;;;17.10;99.90;;;;;;4993144;28;20034;-85
2022/06/11 00:15:00;;;;;;;15.27;5.00;;;17.10;99.90;;;;;;4991810;28;20030;-83
2022/06/11 00:17:28;;;;;;;14.57;5.03;;;17.10;99.90;;;;;;5000740;28;20039;-87
2022/06/11 00:19:54;;;;;;;9.90;4.60;;;17.10;99.90;;;;;;5001852;28;20058;-87
2022/06/11 00:22:22;;;;;;;5.90;4.47;;;17.00;99.90;;;;;;5002498;28;20022;-88
2022/06/11 00:24:49;;;;;;;7.88;4.40;;;17.00;99.90;;;;;;5001552;28;20050;-87
2022/06/11 00:27:16;;;;;;;8.00;4.80;;;17.00;99.90;;;;;;5002080;28;20054;-86
2022/06/11 00:29:43;;;;;;;7.03;4.57;;;17.00;99.90;;;;;;4996077;28;20177;-87
2022/06/11 00:32:11;;;;;;;5.93;4.25;;;17.00;99.90;;;;;;4990070;28;20035;-88
2022/06/11 00:34:38;;;;;;;7.40;4.55;;;17.00;99.90;;;;;;4984716;28;20019;-88
2022/06/11 00:37:05;;;;;;;8.20;5.00;;;16.90;99.90;;;;;;4984536;28;20195;-87
2022/06/11 00:39:33;;;;;;;9.65;5.35;;;16.90;99.90;;;;;;4987224;28;20026;-87
2022/06/11 00:42:12;;;;;;;6.78;4.82;;;16.90;99.90;;;;;;4978328;28;20279;-87
2022/06/11 00:44:38;;;;;;;8.07;5.07;;;16.90;99.90;;;;;;4977098;28;20023;-88
2022/06/11 00:47:10;;;;;;;8.80;4.70;;;16.80;99.90;;;;;;4976920;28;20034;-86
2022/06/11 00:49:49;;;;;;;7.95;4.50;;;16.80;99.90;;;;;;4977900;28;20047;-87
2022/06/11 00:52:30;;;;;;;6.18;4.47;;;16.80;99.90;;;;;;4963941;28;20027;-88
2022/06/11 00:55:23;;;;;;;7.80;5.47;;;16.80;99.90;;;;;;4980516;28;20022;-87
2022/06/11 00:58:16;;;;;;;6.25;4.60;;;16.80;99.90;;;;;;4970422;28;20051;-87
2022/06/11 01:00:52;;;;;;;6.85;4.90;;;16.80;99.90;;;;;;4969545;28;20087;-87
2022/06/11 01:03:24;;;;;;;8.00;4.80;;;16.70;99.90;;;;;;4967013;28;20038;-86
2022/06/11 01:06:17;;;;;;;6.40;4.55;;;16.70;99.90;;;;;;4966639;28;20027;-86
2022/06/11 01:08:52;;;;;;;12.25;4.70;;;16.60;99.90;;;;;;4975334;28;20046;-88
2022/06/11 01:12:05;;;;;;;5.75;4.13;;;16.60;99.90;;;;;;4979410;28;20027;-87
2022/06/11 01:14:37;;;;;;;6.60;4.38;;;16.60;99.90;;;;;;4945871;29;20035;-87
2022/06/11 01:17:15;;;;;;;8.13;4.70;;;16.60;99.90;;;;;;4945613;29;20114;-87
2022/06/11 01:20:13;;;;;;;11.48;4.80;;;16.60;99.90;;;;;;4951384;28;20103;-88
2022/06/11 01:22:57;;;;;;;11.15;4.90;;;16.50;99.90;;;;;;4952783;28;20068;-86
2022/06/11 01:25:50;;;;;;;5.83;3.87;;;16.50;99.90;;;;;;4966530;28;20047;-87
2022/06/11 01:28:28;;;;;;;4.53;3.80;;;16.50;99.90;;;;;;4968071;28;20046;-86
2022/06/11 01:31:07;;;;;;;5.80;4.50;;;16.50;99.90;;;;;;4985155;28;20047;-87
2022/06/11 01:34:04;;;;;;;7.07;5.20;;;16.50;99.90;;;;;;4983693;28;20042;-86
2022/06/11 01:36:36;;;;;;;9.65;5.38;;;16.40;99.90;;;;;;4988813;28;20030;-88
2022/06/11 01:39:02;;;;;;;5.70;4.35;;;16.40;99.90;;;;;;4979484;28;20055;-87
2022/06/11 01:41:37;;;;;;;9.85;5.97;;;16.40;99.90;;;;;;4982455;28;20031;-86
2022/06/11 01:44:10;;;;;;;6.53;5.03;;;16.50;99.90;;;;;;4986127;28;20091;-86
2022/06/11 01:46:40;;;;;;;7.97;5.10;;;16.40;99.90;;;;;;4993080;28;20113;-87
2022/06/11 01:49:21;;;;;;;10.05;4.50;;;16.40;99.90;;;;;;4986226;28;20054;-86
2022/06/11 01:52:07;;;;;;;13.98;5.00;;;16.30;99.90;;;;;;4977684;28;20094;-87
2022/06/11 01:55:00;;;;;;;6.82;4.60;;;16.30;99.90;;;;;;4983651;28;20086;-86
2022/06/11 01:57:38;;;;;;;10.70;4.55;;;16.30;99.90;;;;;;4976900;29;20027;-88
2022/06/11 02:00:19;;;;;;;6.00;4.45;;;16.30;99.90;;;;;;4968005;28;20536;-87
2022/06/11 02:03:00;;;;;;;18.10;4.95;;;16.30;99.90;;;;;;4964734;29;20122;-87
2022/06/11 02:06:16;;;;;;;8.55;5.10;;;16.30;99.90;;;;;;4965620;28;20483;-87
2022/06/11 02:08:42;;;;;;;;;;;16.20;99.90;;;;;;4991005;28;20030;-87
2022/06/11 02:11:29;;;;;;;9.48;4.80;;;16.20;99.90;;;;;;4971918;28;19910;-87
2022/06/11 02:14:16;;;;;;;8.82;4.72;;;16.20;99.90;;;;;;4972463;28;20407;-86
2022/06/11 02:16:50;;;;;;;6.13;4.60;;;16.10;99.90;;;;;;4973992;28;20022;-87
2022/06/11 02:19:23;;;;;;;6.38;4.38;;;16.00;99.90;;;;;;4970077;28;20038;-89
2022/06/11 02:22:01;;;;;;;7.20;4.35;;;16.00;99.90;;;;;;4971289;28;20023;-88
2022/06/11 02:24:38;;;;;;;5.10;4.60;;;16.00;99.90;;;;;;4972786;28;20027;-88
2022/06/11 02:27:10;;;;;;;9.20;4.65;;;15.90;99.90;;;;;;4975389;28;20034;-88
2022/06/11 02:29:37;;;;;;;4.82;4.05;;;15.90;99.90;;;;;;4968944;28;20043;-88
2022/06/11 02:32:11;;;;;;;10.90;5.13;;;15.90;99.90;;;;;;4975693;28;20027;-87
2022/06/11 02:34:49;;;;;;;8.30;4.97;;;15.90;99.90;;;;;;4978982;28;20098;-87
2022/06/11 02:37:26;;;;;;;6.45;4.60;;;15.80;99.90;;;;;;4962169;29;20035;-86
2022/06/11 02:39:57;;;;;;;8.57;4.53;;;15.80;99.90;;;;;;4962729;28;20043;-86
2022/06/11 02:42:25;;;;;;;6.93;4.70;;;15.80;99.90;;;;;;4962976;28;20081;-85
2022/06/11 02:44:51;;;;;;;6.10;4.65;;;15.70;99.90;;;;;;4963475;28;20023;-86
2022/06/11 02:47:19;;;;;;;7.57;4.78;;;15.70;99.90;;;;;;4962259;28;20038;-87
2022/06/11 02:49:45;;;;;;;7.90;4.65;;;15.80;99.90;;;;;;4961780;28;20030;-86
2022/06/11 02:52:21;;;;;;;8.30;4.22;;;15.80;99.90;;;;;;4994661;23;20027;-86
2022/06/11 02:54:49;;;;;;;10.70;4.80;;;15.80;99.90;;;;;;4979686;28;20051;-85
2022/06/11 02:57:18;;;;;;;8.50;4.30;;;15.90;99.90;;;;;;4978016;28;20023;-86
2022/06/11 02:59:44;;;;;;;6.90;4.75;;;15.90;99.90;;;;;;4978568;28;20318;-86
2022/06/11 03:02:10;;;;;;;5.15;4.07;;;16.00;99.90;;;;;;4978714;28;20083;-87
2022/06/11 03:04:38;;;;;;;6.15;4.18;;;16.00;99.90;;;;;;4978808;28;20033;-86
2022/06/11 03:07:04;;;;;;;9.73;3.95;;;16.00;99.90;;;;;;4978871;28;20019;-85
2022/06/11 03:09:32;;;;;;;4.47;3.78;;;16.10;99.90;;;;;;4979105;28;20023;-85
2022/06/11 03:11:59;;;;;;;6.45;4.63;;;16.00;99.90;;;;;;4979343;28;20027;-86
2022/06/11 03:14:25;;;;;;;6.38;4.10;;;16.00;99.90;;;;;;4979567;28;20023;-85
2022/06/11 03:16:50;;;;;;;5.25;4.30;;;16.00;99.90;;;;;;4978882;28;20042;-86
2022/06/11 03:19:20;;;;;;;10.70;4.70;;;16.00;99.90;;;;;;4979389;28;20132;-86
2022/06/11 03:21:47;;;;;;;8.35;4.47;;;15.90;99.90;;;;;;4962083;28;20042;-87
2022/06/11 03:24:13;;;;;;;11.30;4.70;;;15.90;99.90;;;;;;4980076;28;20050;-85
2022/06/11 03:26:39;;;;;;;8.07;4.60;;;15.90;99.90;;;;;;4979423;28;20091;-86
2022/06/11 03:29:06;;;;;;;10.50;4.88;;;15.90;99.90;;;;;;4979790;28;20034;-84
2022/06/11 03:31:32;;;;;;;6.97;4.75;;;15.90;99.90;;;;;;4979033;28;20019;-87
2022/06/11 03:33:58;;;;;;;8.95;4.55;;;15.80;99.90;;;;;;4978927;28;20028;-86
2022/06/11 03:36:24;;;;;;;5.47;4.40;;;15.90;99.90;;;;;;4979588;28;20016;-86
2022/06/11 03:38:50;;;;;;;5.88;4.50;;;15.90;99.90;;;;;;4978762;28;20086;-84
2022/06/11 03:41:17;;;;;;;7.63;4.80;;;16.00;99.90;;;;;;4978391;28;20023;-86
2022/06/11 03:43:44;;;;;;;9.20;5.20;;;16.00;99.90;;;;;;4977483;28;20031;-86
2022/06/11 03:46:10;;;;;;;6.38;4.32;;;16.00;99.90;;;;;;4972160;28;20444;-87
2022/06/11 03:48:38;;;;;;;9.57;4.05;;;16.10;99.90;;;;;;4970560;28;20043;-86
2022/06/11 03:51:06;;;;;;;9.55;4.65;;;16.10;99.90;;;;;;4968924;28;20186;-86
2022/06/11 03:53:33;;;;;;;6.18;4.28;;;16.20;99.90;;;;;;4966857;29;20122;-86
2022/06/11 03:55:59;;;;;;;6.53;4.60;;;16.30;99.90;;;;;;4967545;28;20031;-86
2022/06/11 03:58:26;;;;;;;6.28;4.03;;;16.30;99.90;;;;;;4965675;28;20045;-87
2022/06/11 04:03:37;;;;;;;7.07;4.75;;;16.40;99.90;;;;;;4970681;28;20047;-87
2022/06/11 04:06:04;;;;;;;5.45;4.05;;;16.50;99.90;;;;;;4977995;28;20043;-88
2022/06/11 04:08:30;;;;;;;5.57;4.38;;;16.60;99.90;;;;;;4977004;28;20111;-86
2022/06/11 04:10:57;;;;;;;9.43;4.30;;;16.70;99.90;;;;;;4977166;28;20027;-86
2022/06/11 04:13:25;;;;;;;7.63;3.80;;;16.70;99.90;;;;;;4976116;28;20035;-86
2022/06/11 04:15:53;;;;;;;4.97;4.15;;;16.80;99.90;;;;;;4973925;29;20003;-87
2022/06/11 04:18:37;;;;;;;5.43;3.40;;;16.90;99.90;;;;;;4973025;28;20027;-87
2022/06/11 04:21:07;;;;;;;7.68;3.70;;;17.00;99.90;;;;;;4969752;29;20031;-86
2022/06/11 04:23:34;;;;;;;8.82;3.78;;;17.20;99.90;;;;;;4974158;28;20038;-88
2022/06/11 04:26:04;;;;;;;6.55;3.75;;;17.30;99.90;;;;;;4977152;28;20046;-84
2022/06/11 04:28:31;;;;;;;8.55;3.85;;;17.40;99.90;;;;;;4983473;28;20035;-84
2022/06/11 04:31:00;;;;;;;5.80;3.42;;;17.50;99.90;;;;;;4987886;28;20027;-83
2022/06/11 04:33:26;;;;;;;6.50;3.55;;;17.60;99.90;;;;;;4989072;28;20065;-83
2022/06/11 04:35:52;;;;;;;7.45;3.47;;;17.80;99.90;;;;;;4991000;28;20105;-84
2022/06/11 04:38:18;;;;;;;8.35;3.22;;;17.90;99.90;;;;;;4984567;28;20256;-85
2022/06/11 04:40:44;;;;;;;5.32;3.60;;;17.90;99.90;;;;;;4977203;28;20039;-86
2022/06/11 04:43:10;;;;;;;9.32;3.50;;;18.10;99.90;;;;;;4973809;28;20037;-86
2022/06/11 04:45:37;;;;;;;5.13;3.38;;;18.20;99.90;;;;;;4971793;28;20043;-88
2022/06/11 04:48:03;;;;;;;6.75;3.00;;;18.30;99.90;;;;;;4969994;29;20122;-86
2022/06/11 04:50:30;;;;;;;7.65;2.97;;;18.50;99.90;;;;;;4971739;28;20058;-87
2022/06/11 04:52:55;;;;;;;6.63;2.65;;;19.20;99.90;;;;;;4971744;28;20039;-86
2022/06/11 04:55:21;;;;;;;5.25;2.58;;;19.70;99.90;;;;;;4969343;29;20035;-86
2022/06/11 04:57:48;;;;;;;7.32;3.05;;;20.10;99.90;;;;;;4975256;29;20019;-83
2022/06/11 05:00:18;;;;;;;6.10;2.75;;;20.00;99.90;;;;;;4980390;28;20078;-86
2022/06/11 05:02:46;;;;;;;10.45;3.00;;;19.90;99.90;;;;;;4980595;28;20023;-85
2022/06/11 05:05:12;;;;;;;8.13;2.90;;;19.80;99.90;;;;;;4980808;28;20034;-84
2022/06/11 05:07:38;;;;;;;4.40;3.20;;;19.80;99.90;;;;;;4980713;28;20019;-83
2022/06/11 05:10:06;;;;;;;6.00;3.13;;;19.70;99.90;;;;;;4980285;28;20023;-85
2022/06/11 05:12:32;;;;;;;7.07;3.08;;;19.60;99.90;;;;;;4964202;29;20039;-85
2022/06/11 05:14:58;;;;;;;6.38;2.92;;;19.60;99.90;;;;;;4973352;28;20027;-84
2022/06/11 05:17:24;;;;;;;3.55;2.60;;;19.50;99.90;;;;;;4969244;28;20031;-84
2022/06/11 05:19:50;;;;;;;7.00;2.97;;;19.60;99.90;;;;;;4972036;29;20510;-86
2022/06/11 05:22:16;;;;;;;4.43;2.75;;;19.60;99.90;;;;;;4958971;28;20032;-86
2022/06/11 05:24:42;;;;;;;6.03;3.40;;;19.70;99.90;;;;;;4955246;29;20083;-84
2022/06/11 05:27:22;;;;;;;7.95;3.05;;;19.70;99.90;;;;;;4974563;28;20094;-86
2022/06/11 05:29:52;;;;;;;4.88;2.85;;;19.70;99.90;;;;;;4974854;28;20035;-85
2022/06/11 05:32:26;;;;;;;9.80;3.45;;;19.70;99.90;;;;;;4976040;29;20039;-83
2022/06/11 05:34:53;;;;;;;9.25;2.92;;;19.80;99.90;;;;;;4963969;28;20036;-84
2022/06/11 05:37:19;;;;;;;6.72;2.60;;;19.80;99.90;;;;;;4958621;29;20031;-86
2022/06/11 05:39:46;;;;;;;4.38;2.83;;;19.90;99.90;;;;;;4958576;29;20040;-86
2022/06/11 05:42:13;;;;;;;4.95;2.97;;;19.90;99.90;;;;;;4960117;29;20024;-85
2022/06/11 05:44:40;;;;;;;7.60;3.42;;;20.00;99.90;;;;;;4959706;29;20020;-84
2022/06/11 05:47:08;;;;;;;8.35;3.17;;;20.10;99.90;;;;;;4960976;29;20048;-83
2022/06/11 05:49:37;;;;;;;4.97;3.30;;;20.10;99.90;;;;;;4960594;29;20091;-83
2022/06/11 05:52:11;;;;;;;5.70;3.22;;;20.20;99.90;;;;;;4959564;28;20059;-83
2022/06/11 05:54:39;;;;;;;8.27;3.03;;;20.30;99.90;;;;;;4977824;28;20043;-83
2022/06/11 05:57:08;;;;;;;8.70;3.20;;;20.40;99.90;;;;;;4980449;28;20011;-83
2022/06/11 05:59:39;;;;;;;6.57;2.97;;;20.50;99.90;;;;;;4980548;28;20067;-83
2022/06/11 06:02:10;;;;;;;7.90;3.05;;;20.50;99.90;;;;;;4980358;28;20046;-83
2022/06/11 06:04:37;;;;;;;5.88;2.85;;;20.50;99.90;;;;;;4987864;28;20046;-83
2022/06/11 06:07:08;;;;;;;7.35;3.08;;;20.50;99.90;;;;;;4986999;28;20532;-83
2022/06/11 06:09:34;;;;;;;5.75;2.75;;;20.60;99.90;;;;;;5002246;28;20027;-82
2022/06/11 06:12:00;;;;;;;7.22;3.10;;;20.80;99.90;;;;;;4990886;28;20243;-83
2022/06/11 06:14:26;;;;;;;6.25;2.38;;;20.90;99.90;;;;;;4991363;28;20042;-82
2022/06/11 06:16:52;;;;;;;4.63;2.92;;;20.90;99.90;;;;;;4989091;28;20018;-82
2022/06/11 06:19:18;;;;;;;4.55;3.40;;;21.00;99.90;;;;;;4984000;28;20039;-82
2022/06/11 06:21:44;;;;;;;9.98;3.25;;;21.00;99.90;;;;;;4985997;28;20031;-83
2022/06/11 06:24:10;;;;;;;4.97;2.55;;;21.00;99.90;;;;;;4989440;28;20023;-84
2022/06/11 06:26:36;;;;;;;5.15;2.80;;;21.00;99.90;;;;;;4988208;28;20031;-84
2022/06/11 06:29:03;;;;;;;7.43;3.20;;;21.10;99.90;;;;;;4990545;28;20027;-84
2022/06/11 06:31:28;;;;;;;6.30;2.60;;;21.20;99.90;;;;;;4997496;28;20035;-84
2022/06/11 06:33:58;;;;;;;5.43;3.15;;;21.30;99.90;;;;;;4998453;28;20019;-84
2022/06/11 06:36:25;;;;;;;5.20;3.22;;;21.30;99.90;;;;;;4997884;28;20038;-84
2022/06/11 06:38:51;;;;;;;13.15;3.50;;;21.30;99.90;;;;;;4998399;28;20122;-82
2022/06/11 06:41:18;;;;;;;5.40;2.97;;;21.40;99.90;;;;;;4998971;28;20027;-86
2022/06/11 06:43:45;;;;;;;6.50;2.95;;;21.40;99.90;;;;;;4998423;28;20095;-86
2022/06/11 06:46:11;;;;;;;5.50;2.83;;;21.50;99.90;;;;;;4999567;28;20027;-85
2022/06/11 06:48:38;;;;;;;5.22;3.10;;;21.40;99.90;;;;;;4997610;28;20109;-88
2022/06/11 06:51:04;;;;;;;7.72;3.13;;;21.40;99.90;;;;;;4981201;28;20070;-86
2022/06/11 06:53:31;;;;;;;3.67;2.42;;;21.50;99.90;;;;;;4975938;28;20058;-85
2022/06/11 06:55:57;;;;;;;4.45;2.72;;;21.50;99.90;;;;;;4976870;28;20042;-87
2022/06/11 06:58:23;;;;;;;10.10;3.50;;;21.60;99.90;;;;;;4974717;28;20035;-87
2022/06/11 07:00:50;;;;;;;5.28;3.35;;;21.60;99.90;;;;;;4975336;28;20046;-88
2022/06/11 07:03:17;;;;;;;14.63;3.03;;;21.70;99.90;;;;;;4974970;28;20374;-87
2022/06/11 07:05:46;;;;;;;10.23;3.55;;;21.70;99.90;;;;;;4977148;28;20031;-89
2022/06/11 07:08:13;;;;;;;7.57;3.72;;;21.60;99.90;;;;;;4953830;29;20022;-84
2022/06/11 07:10:39;;;;;;;6.47;2.95;;;21.80;99.90;;;;;;4974753;28;20023;-88
2022/06/11 07:13:05;;;;;;;4.38;3.35;;;21.80;99.90;;;;;;4975897;28;20067;-88
2022/06/11 07:15:35;;;;;;;6.95;3.00;;;22.00;99.90;;;;;;4976009;28;20007;-88
2022/06/11 07:18:08;;;;;;;5.68;3.15;;;22.00;99.90;;;;;;4974612;28;20046;-87
2022/06/11 07:20:35;;;;;;;5.95;2.75;;;22.10;99.90;;;;;;4973594;28;20047;-88
2022/06/11 07:23:17;;;;;;;8.40;3.08;;;22.10;99.90;;;;;;4973548;29;20019;-88
2022/06/11 07:25:45;;;;;;;5.15;2.65;;;22.10;99.90;;;;;;4975852;28;20035;-88
2022/06/11 07:28:21;;;;;;;8.98;3.35;;;22.10;99.90;;;;;;4976927;28;20035;-87
2022/06/11 07:30:47;;;;;;;9.05;3.13;;;22.10;99.90;;;;;;4978303;28;20023;-87
2022/06/11 07:33:19;;;;;;;6.38;3.17;;;22.20;99.90;;;;;;4978380;28;20090;-86
2022/06/11 07:35:48;;;;;;;4.25;2.80;;;22.20;99.90;;;;;;4978417;28;20047;-86
2022/06/11 07:38:15;;;;;;;6.00;3.10;;;22.20;99.90;;;;;;4979131;28;20027;-88
2022/06/11 07:40:42;;;;;;;5.45;3.38;;;22.20;99.90;;;;;;4978423;28;20067;-86
2022/06/11 07:43:08;;;;;;;7.68;2.72;;;22.30;99.90;;;;;;4978219;28;20042;-87
2022/06/11 07:45:39;;;;;;;5.40;2.90;;;22.30;99.90;;;;;;4978251;28;20035;-87
2022/06/11 07:48:06;;;;;;;7.60;2.92;;;22.30;99.90;;;;;;4961934;29;20103;-88
2022/06/11 07:50:35;;;;;;;5.85;2.85;;;22.40;99.90;;;;;;4978061;28;20019;-88
2022/06/11 07:53:02;;;;;;;5.65;2.53;;;22.40;99.90;;;;;;4978349;28;20023;-86
2022/06/11 07:55:30;;;;;;;6.35;2.75;;;22.40;99.90;;;;;;4961786;28;20031;-88
2022/06/11 07:57:56;;;;;;;10.15;2.88;;;22.40;99.90;;;;;;4978129;28;20012;-87
2022/06/11 08:00:29;;;;;;;10.20;2.70;;;22.40;99.90;;;;;;4960747;28;20051;-88
2022/06/11 08:02:55;;;;;;;4.72;2.40;;;22.40;99.90;;;;;;4978089;28;20087;-88
2022/06/11 08:05:21;;;;;;;8.05;2.63;;;22.40;99.90;;;;;;4978139;28;20019;-89
2022/06/11 08:07:48;;;;;;;6.97;2.80;;;22.40;99.90;;;;;;4976491;28;20051;-89
2022/06/11 08:10:14;;;;;;;3.80;2.70;;;22.50;99.90;;;;;;4980609;28;20036;-89
2022/06/11 08:12:41;;;;;;;7.95;2.70;;;22.50;99.90;;;;;;4980477;28;20041;-88
2022/06/11 08:15:08;;;;;;;10.20;2.53;;;22.60;99.90;;;;;;4979519;29;20016;-88
2022/06/11 08:17:34;;;;;;;14.90;2.92;;;22.70;99.90;;;;;;4980197;28;20054;-89
2022/06/11 08:20:01;;;;;;;8.05;2.75;;;22.70;99.90;;;;;;4980732;28;20023;-88
2022/06/11 08:22:27;;;;;;;5.28;2.45;;;22.70;99.90;;;;;;4980315;28;20051;-88
2022/06/11 08:24:53;;;;;;;5.32;2.60;;;22.60;99.90;;;;;;4980328;28;20043;-87
2022/06/11 08:27:19;;;;;;;5.03;2.42;;;22.70;99.90;;;;;;4980867;28;20101;-88
2022/06/11 08:29:45;;;;;;;7.95;2.80;;;22.70;99.90;;;;;;4964380;29;20054;-88
2022/06/11 08:32:11;;;;;;;6.63;2.70;;;22.70;99.90;;;;;;4977303;28;20035;-91
2022/06/11 08:34:38;;;;;;;6.35;2.55;;;22.70;99.90;;;;;;4976871;28;20066;-89
2022/06/11 08:37:04;;;;;;;4.82;2.45;;;22.80;99.90;;;;;;4975604;28;20103;-89
2022/06/11 08:39:30;;;;;;;5.65;2.53;;;22.80;99.90;;;;;;4975344;29;20059;-88
2022/06/11 08:41:59;;;;;;;5.50;4.30;;;22.80;99.90;;;;;;4974864;28;20031;-88
2022/06/11 08:44:27;;;;;;;4.13;2.80;;;22.80;99.90;;;;;;4976451;28;20079;-88
2022/06/11 08:46:57;;;;;;;4.57;2.67;;;22.90;99.90;;;;;;4959592;29;20046;-89
2022/06/11 08:49:46;;;;;;;4.22;2.55;;;23.00;99.90;;;;;;4976918;29;20027;-88
2022/06/11 08:52:25;;;;;;;3.35;2.55;;;23.00;99.90;;;;;;5052627;23;20062;-88
2022/06/11 08:54:51;;;;;;;5.82;2.90;;;23.00;99.90;;;;;;4980125;28;20035;-88
2022/06/11 08:57:24;;;;;;;8.05;2.63;;;23.10;99.90;;;;;;4975958;29;20031;-87
2022/06/11 09:00:11;;;;;;;5.05;2.30;;;23.10;99.90;;;;;;4969688;29;20039;-88
2022/06/11 09:02:49;;;;;;;9.63;2.70;;;23.30;99.90;;;;;;4979507;28;20019;-87
2022/06/11 09:05:27;;;;;;;9.45;2.63;;;23.40;99.90;;;;;;4971798;28;20100;-89
2022/06/11 09:08:08;;;;;;;5.10;2.70;;;23.30;99.90;;;;;;4974321;29;20027;-88
2022/06/11 09:10:43;;;;;;;7.57;2.65;;;23.40;99.90;;;;;;4971756;28;20059;-87
2022/06/11 09:13:46;;;;;;;6.07;2.40;;;23.50;99.90;;;;;;4971285;29;20035;-87
2022/06/11 09:16:23;;;;;;;6.38;2.33;;;23.60;99.90;;;;;;4971298;29;20063;-87
2022/06/11 09:19:15;;;;;;;6.75;2.22;;;23.60;99.90;;;;;;4973409;28;20067;-85
2022/06/11 09:21:50;;;;;;;4.80;2.58;;;23.50;99.90;;;;;;4971264;28;20063;-89
2022/06/11 09:24:24;;;;;;;;;;;23.60;99.90;;;;;;4972147;29;20464;-86
2022/06/11 09:27:10;;;;;;;7.40;2.30;;;23.60;99.90;;;;;;4967187;29;19918;-87
2022/06/11 09:29:40;;;;;;;3.85;2.00;;;23.70;99.90;;;;;;4964890;28;20440;-88
2022/06/11 09:32:09;;;;;;;4.22;1.92;;;23.90;99.90;;;;;;4963897;28;20027;-89
2022/06/11 09:35:00;;;;;;;5.07;2.30;;;24.10;99.90;;;;;;4963829;28;20391;-86
2022/06/11 09:37:46;;;;;;;2.53;1.77;;;24.30;99.90;;;;;;4964613;29;20047;-86
2022/06/11 09:40:26;;;;;;;2.78;1.90;;;24.40;99.90;;;;;;4965089;29;20039;-87
2022/06/11 09:43:04;;;;;;;11.05;2.17;;;24.60;99.80;;;;;;4964381;29;20035;-87
2022/06/11 09:45:50;;;;;;;6.80;2.17;;;25.10;98.90;;;;;;4967267;29;20083;-86
2022/06/11 09:48:46;;;;;;;7.10;2.08;;;25.30;98.70;;;;;;4966614;28;20031;-86
2022/06/11 09:51:46;;;;;;;6.75;2.20;;;25.70;98.30;;;;;;4949528;29;20046;-86
2022/06/11 09:54:50;;;;;;;5.20;2.05;;;25.90;97.00;;;;;;4968983;28;20082;-86
2022/06/11 09:57:47;;;;;;;6.82;2.13;;;26.30;96.90;;;;;;4968903;28;20036;-87
2022/06/11 10:00:38;;;;;;;5.03;2.10;;;27.00;96.00;;;;;;4967769;29;20101;-87
2022/06/11 10:03:35;;;;;;;7.25;2.53;;;27.70;95.20;;;;;;4966234;28;20039;-86
2022/06/11 10:06:10;;;;;;;6.55;1.63;;;28.60;94.60;;;;;;4968429;29;20031;-89
2022/06/11 10:08:58;;;;;;;3.85;1.73;;;29.30;92.90;;;;;;4968049;29;20067;-88
2022/06/11 10:11:33;;;;;;;3.97;1.63;;;30.50;91.60;;;;;;4969057;28;20131;-85
2022/06/11 10:14:29;;;;;;;3.80;1.88;;;31.90;87.10;;;;;;4969303;28;20063;-87
2022/06/11 10:17:18;;;;;;;3.08;1.40;;;31.80;84.10;;;;;;4970306;28;20032;-86
2022/06/11 10:19:49;;;;;;;4.93;1.60;;;30.70;83.50;;;;;;4969120;28;20446;-86
2022/06/11 10:22:20;;;;;;;9.18;2.00;;;30.40;84.10;;;;;;4968600;28;20031;-87
2022/06/11 10:25:15;;;;;;;3.20;1.58;;;29.80;84.40;;;;;;4967202;29;20043;-88
2022/06/11 10:27:56;;;;;;;;;;;30.40;83.60;;;;;;4961663;29;20062;-86
2022/06/11 10:30:37;;;;;;;3.38;1.73;;;31.60;81.40;;;;;;4968204;28;19918;-87
2022/06/11 10:33:11;;;;;;;7.18;1.63;;;33.30;78.80;;;;;;4969646;28;20034;-86
2022/06/11 10:35:47;;;;;;;5.57;1.92;;;33.30;75.90;;;;;;4967874;29;20035;-87
2022/06/11 10:38:41;;;;;;;3.55;1.88;;;32.40;76.30;;;;;;4966888;28;20032;-88
2022/06/11 10:41:14;;;;;;;11.15;1.75;;;33.00;75.00;;;;;;4972008;28;20058;-90
2022/06/11 10:44:09;;;;;;;4.30;1.38;;;33.90;73.10;;;;;;4973420;28;20035;-87
2022/06/11 10:46:37;;;;;;;4.60;1.70;;;34.70;71.50;;;;;;4960664;28;20035;-89
2022/06/11 10:49:10;;;;;;;7.18;1.30;;;35.90;69.30;;;;;;4979034;28;20019;-88
2022/06/11 10:51:38;;;;;;;6.55;1.40;;;35.80;67.80;;;;;;4979724;28;20031;-88
2022/06/11 10:54:17;;;;;;;4.38;1.67;;;35.60;66.60;;;;;;4979142;28;20019;-86
2022/06/11 10:56:51;;;;;;;3.90;1.50;;;35.70;65.00;;;;;;4975550;28;20058;-86
2022/06/11 10:59:27;;;;;;;6.93;1.55;;;35.60;65.00;;;;;;4966592;29;20494;-87
2022/06/11 11:02:05;;;;;;;3.40;1.40;;;35.80;63.20;;;;;;4965580;28;20089;-88
2022/06/11 11:04:53;;;;;;;2.42;1.40;;;36.70;62.90;;;;;;4967508;28;20023;-87
2022/06/11 11:07:20;;;;;;;6.85;1.55;;;37.30;60.10;;;;;;4978616;28;20023;-91
2022/06/11 11:09:47;;;;;;;3.60;1.48;;;36.80;59.90;;;;;;4974264;28;20456;-88
2022/06/11 11:12:28;;;;;;;2.53;1.30;;;36.50;59.70;;;;;;4964419;29;20035;-88
2022/06/11 11:15:24;;;;;;;2.78;1.40;;;36.20;59.50;;;;;;4971368;29;20050;-88
2022/06/11 11:17:54;;;;;;;4.82;1.50;;;36.80;59.90;;;;;;4969883;29;20043;-86
2022/06/11 11:20:32;;;;;;;2.58;1.38;;;37.20;59.00;;;;;;4966426;28;20059;-88
2022/06/11 11:23:10;;;;;;;2.63;1.52;;;38.30;57.80;;;;;;4967339;28;20062;-87
2022/06/11 11:25:48;;;;;;;3.00;1.20;;;39.10;56.30;;;;;;4974996;29;20036;-87
2022/06/11 11:28:25;;;;;;;6.03;1.55;;;39.40;55.30;;;;;;4976747;29;20054;-87
2022/06/11 11:31:22;;;;;;;4.40;1.60;;;39.30;54.80;;;;;;4972772;28;20034;-88
2022/06/11 11:34:10;;;;;;;6.25;1.42;;;39.50;54.70;;;;;;4963075;29;20104;-88
2022/06/11 11:36:36;;;;;;;5.93;1.60;;;39.30;54.00;;;;;;4964999;28;20055;-87
2022/06/11 11:39:17;;;;;;;3.85;1.50;;;38.70;54.90;;;;;;4968063;28;20090;-87
2022/06/11 11:42:09;;;;;;;3.70;1.38;;;38.80;55.20;;;;;;4963434;29;20094;-87
2022/06/11 11:44:50;;;;;;;6.50;1.63;;;39.60;54.40;;;;;;4962625;28;20507;-87
2022/06/11 11:47:33;;;;;;;2.63;1.33;;;40.20;53.30;;;;;;4963146;28;20035;-87
2022/06/11 11:50:24;;;;;;;4.97;1.50;;;39.70;53.40;;;;;;4963953;28;20059;-85
2022/06/11 11:53:01;;;;;;;5.85;1.50;;;38.60;53.90;;;;;;4964778;28;20031;-89
2022/06/11 11:55:31;;;;;;;2.63;1.27;;;37.80;54.50;;;;;;4964402;28;20035;-86
2022/06/11 11:58:05;;;;;;;3.08;1.38;;;38.10;54.10;;;;;;4964600;28;20034;-86
2022/06/11 12:00:41;;;;;;;6.28;1.20;;;38.00;53.70;;;;;;4962597;28;20131;-87
2022/06/11 12:03:20;;;;;;;1.73;1.20;;;36.80;53.90;;;;;;4963535;29;20059;-86
2022/06/11 12:05:55;;;;;;;2.05;1.50;;;36.30;54.50;;;;;;4963796;28;20031;-87
2022/06/11 12:08:29;;;;;;;5.50;1.40;;;36.30;55.00;;;;;;4964338;29;20029;-86
2022/06/11 12:10:58;;;;;;;3.22;1.73;;;37.40;54.30;;;;;;4965277;28;20035;-86
2022/06/11 12:13:28;;;;;;;7.65;1.83;;;38.80;53.70;;;;;;4963897;29;20036;-87
2022/06/11 12:15:59;;;;;;;4.07;1.40;;;40.00;52.30;;;;;;4965086;29;20050;-86
2022/06/11 12:18:42;;;;;;;6.38;1.50;;;40.40;51.90;;;;;;4966122;28;20038;-88
2022/06/11 12:21:23;;;;;;;5.18;1.40;;;40.30;50.40;;;;;;4964518;29;20043;-87
2022/06/11 12:23:52;;;;;;;5.10;1.50;;;40.40;50.70;;;;;;4965849;29;20059;-86
2022/06/11 12:26:23;;;;;;;4.72;1.33;;;40.50;50.50;;;;;;4965221;28;20030;-86
2022/06/11 12:29:00;;;;;;;3.05;1.50;;;40.90;50.10;;;;;;4946894;29;20055;-85
2022/06/11 12:31:30;;;;;;;2.55;1.20;;;41.20;49.90;;;;;;4963447;28;20031;-86
2022/06/11 12:33:56;;;;;;;5.57;1.25;;;41.10;49.70;;;;;;4964899;28;20031;-86
2022/06/11 12:37:11;;;;;;;2.92;1.35;;;41.20;49.40;;;;;;4947399;29;20038;-86
2022/06/11 12:39:53;;;;;;;3.67;1.98;;;41.20;49.60;;;;;;4942611;29;20512;-86
2022/06/11 12:42:56;;;;;;;8.95;1.50;;;42.00;49.10;;;;;;4943920;29;20036;-86
2022/06/11 12:45:34;;;;;;;3.63;1.38;;;41.70;48.80;;;;;;4958093;29;20107;-85
2022/06/11 12:48:09;;;;;;;3.90;1.50;;;41.90;49.00;;;;;;4967412;29;20035;-87
2022/06/11 12:50:42;;;;;;;3.65;1.48;;;41.70;48.30;;;;;;4970650;28;20039;-87
2022/06/11 12:53:23;;;;;;;3.80;1.27;;;41.50;48.40;;;;;;4977049;28;20035;-88
2022/06/11 12:55:58;;;;;;;5.50;1.70;;;41.10;48.40;;;;;;4979375;28;20035;-88
2022/06/11 12:58:33;;;;;;;2.33;1.25;;;41.40;48.30;;;;;;4980460;28;20039;-87
2022/06/11 13:01:23;;;;;;;3.00;1.40;;;41.90;47.80;;;;;;4981117;28;20054;-88
2022/06/11 13:04:11;;;;;;;6.78;1.65;;;41.70;47.60;;;;;;4980815;28;20019;-87
2022/06/11 13:06:45;;;;;;;2.10;1.20;;;41.40;48.20;;;;;;4969534;28;20044;-87
2022/06/11 13:09:21;;;;;;;2.28;1.33;;;41.10;48.20;;;;;;4970559;29;20042;-87
2022/06/11 13:12:12;;;;;;;1.52;1.27;;;41.00;48.40;;;;;;4971828;28;20032;-87
2022/06/11 13:14:43;;;;;;;2.80;1.42;;;40.90;47.90;;;;;;4974130;28;20080;-87
2022/06/11 13:17:42;;;;;;;9.85;1.70;;;41.30;48.00;;;;;;4978750;29;20069;-87
2022/06/11 13:20:28;;;;;;;4.05;1.35;;;41.50;47.70;;;;;;4976981;29;20035;-87
2022/06/11 13:23:07;;;;;;;4.40;1.80;;;40.90;47.60;;;;;;4980501;28;20016;-88